Time;durP1;ratioP1;P1;durP2;ratioP2;P2;SDS_P1;SDS_P2;PMS_P1;PMS_P2;Temp;Humidity;BMP_temperature;BMP_pressure;BME280_temperature;BME280_humidity;BME280_pressure;Samples;Min_cycle;Max_cycle;Signal;HPM_P1;HPM_P2
2021/11/15 00:01:57;;;;;;;21.77;11.98;;;;;;;;;;5073693;28;20075;-70
2021/11/15 00:04:24;;;;;;;23.63;12.90;;;;;;;;;;5073838;28;20044;-70
2021/11/15 00:06:51;;;;;;;22.20;12.82;;;;;;;;;;5082099;28;20056;-71
2021/11/15 00:09:18;;;;;;;20.52;12.75;;;;;;;;;;5076822;28;20056;-70
2021/11/15 00:11:45;;;;;;;21.75;12.60;;;;;;;;;;5055633;28;20083;-70
2021/11/15 00:14:11;;;;;;;22.73;12.32;;;;;;;;;;5086065;28;20074;-70
2021/11/15 00:16:38;;;;;;;21.40;12.30;;;;;;;;;;5093281;28;20048;-70
2021/11/15 00:19:05;;;;;;;19.38;11.25;;;;;;;;;;5112400;28;20056;-70
2021/11/15 00:21:31;;;;;;;25.08;12.18;;;;;;;;;;5113341;28;20074;-70
2021/11/15 00:23:58;;;;;;;20.02;11.15;;;;;;;;;;5110596;28;20074;-70
2021/11/15 00:26:25;;;;;;;22.75;11.65;;;;;;;;;;5111109;28;20086;-70
2021/11/15 00:28:52;;;;;;;24.48;12.27;;;;;;;;;;5111126;28;20075;-70
2021/11/15 00:31:21;;;;;;;24.35;12.48;;;;;;;;;;5111451;28;20047;-70
2021/11/15 00:33:49;;;;;;;24.58;12.52;;;;;;;;;;5112140;28;20091;-70
2021/11/15 00:36:15;;;;;;;22.48;12.60;;;;;;;;;;5111080;28;20098;-70
2021/11/15 00:38:42;;;;;;;21.30;11.98;;;;;;;;;;5093256;28;20044;-70
2021/11/15 00:41:08;;;;;;;25.58;12.55;;;;;;;;;;5091101;28;20090;-70
2021/11/15 00:43:35;;;;;;;25.02;12.73;;;;;;;;;;5091954;28;20082;-70
2021/11/15 00:46:02;;;;;;;24.08;11.85;;;;;;;;;;5092183;28;20062;-70
2021/11/15 00:48:29;;;;;;;21.92;11.88;;;;;;;;;;5090428;28;20045;-70
2021/11/15 00:50:56;;;;;;;24.40;12.73;;;;;;;;;;5091635;28;20075;-70
2021/11/15 00:53:22;;;;;;;21.70;11.55;;;;;;;;;;5089143;28;20101;-70
2021/11/15 00:55:49;;;;;;;21.75;11.73;;;;;;;;;;5072855;28;20277;-70
2021/11/15 00:58:16;;;;;;;18.60;10.75;;;;;;;;;;5085707;28;20048;-71
2021/11/15 01:00:43;;;;;;;20.17;11.23;;;;;;;;;;5092830;28;20464;-70
2021/11/15 01:03:11;;;;;;;20.13;10.60;;;;;;;;;;5092717;28;20044;-70
2021/11/15 01:05:41;;;;;;;21.48;10.68;;;;;;;;;;5092743;28;20048;-70
2021/11/15 01:08:08;;;;;;;18.40;10.90;;;;;;;;;;5080654;28;20078;-70
2021/11/15 01:10:35;;;;;;;18.67;11.07;;;;;;;;;;5071863;28;20499;-70
2021/11/15 01:13:02;;;;;;;16.52;10.00;;;;;;;;;;5072202;28;20063;-70
2021/11/15 01:15:30;;;;;;;19.10;10.75;;;;;;;;;;5072270;28;20086;-70
2021/11/15 01:17:59;;;;;;;20.10;10.15;;;;;;;;;;5082907;28;20055;-70
2021/11/15 01:20:28;;;;;;;17.95;10.85;;;;;;;;;;5092409;28;20043;-70
2021/11/15 01:22:55;;;;;;;41.85;20.90;;;;;;;;;;5092286;28;20048;-70
2021/11/15 01:25:23;;;;;;;19.48;10.30;;;;;;;;;;5092544;28;20105;-70
2021/11/15 01:27:49;;;;;;;16.50;10.15;;;;;;;;;;5092220;28;20052;-70
2021/11/15 01:30:17;;;;;;;17.63;10.02;;;;;;;;;;5074365;28;20048;-70
2021/11/15 01:32:45;;;;;;;15.73;9.93;;;;;;;;;;5091903;28;20456;-70
2021/11/15 01:35:11;;;;;;;15.80;9.23;;;;;;;;;;5092242;28;20495;-70
2021/11/15 01:37:39;;;;;;;18.58;10.45;;;;;;;;;;5092125;28;20048;-70
2021/11/15 01:40:07;;;;;;;16.65;10.15;;;;;;;;;;5092281;28;20085;-70
2021/11/15 01:42:34;;;;;;;18.70;10.50;;;;;;;;;;5091882;28;20098;-70
2021/11/15 01:45:00;;;;;;;21.02;11.02;;;;;;;;;;5092062;28;20071;-70
2021/11/15 01:47:27;;;;;;;14.13;8.68;;;;;;;;;;5091919;28;20081;-70
2021/11/15 01:49:54;;;;;;;18.15;9.70;;;;;;;;;;5074173;28;20051;-70
2021/11/15 01:52:20;;;;;;;17.13;9.02;;;;;;;;;;5091736;28;20048;-69
2021/11/15 01:54:47;;;;;;;16.60;9.20;;;;;;;;;;5091773;28;20093;-70
2021/11/15 01:57:14;;;;;;;18.15;9.65;;;;;;;;;;5091182;28;20105;-70
2021/11/15 01:59:41;;;;;;;17.48;9.43;;;;;;;;;;5091885;28;20051;-70
2021/11/15 02:02:08;;;;;;;17.15;10.23;;;;;;;;;;5073882;28;20048;-70
2021/11/15 02:04:35;;;;;;;17.40;10.75;;;;;;;;;;5091878;28;20188;-70
2021/11/15 02:07:01;;;;;;;20.55;11.38;;;;;;;;;;5072279;28;20457;-69
2021/11/15 02:09:29;;;;;;;17.05;9.98;;;;;;;;;;5089029;28;20056;-69
2021/11/15 02:11:57;;;;;;;18.77;10.25;;;;;;;;;;5091657;28;20456;-69
2021/11/15 02:14:23;;;;;;;19.83;10.40;;;;;;;;;;5091826;28;20044;-69
2021/11/15 02:16:50;;;;;;;20.30;10.65;;;;;;;;;;5091680;28;20055;-70
2021/11/15 02:19:17;;;;;;;19.60;10.77;;;;;;;;;;5091783;28;20487;-70
2021/11/15 02:21:43;;;;;;;20.38;12.00;;;;;;;;;;5094929;28;20093;-70
2021/11/15 02:24:10;;;;;;;19.40;11.15;;;;;;;;;;5096148;28;20044;-69
2021/11/15 02:26:37;;;;;;;21.48;11.80;;;;;;;;;;5095701;28;20048;-70
2021/11/15 02:29:03;;;;;;;19.40;10.75;;;;;;;;;;5095674;28;20498;-70
2021/11/15 02:31:30;;;;;;;20.98;10.98;;;;;;;;;;5095529;28;20089;-70
2021/11/15 02:33:59;;;;;;;18.20;10.85;;;;;;;;;;5095699;28;20078;-70
2021/11/15 02:36:27;;;;;;;22.00;12.25;;;;;;;;;;5095767;28;20403;-70
2021/11/15 02:38:55;;;;;;;22.95;12.05;;;;;;;;;;5078881;28;20048;-70
2021/11/15 02:41:22;;;;;;;22.45;12.10;;;;;;;;;;5075202;28;20044;-70
2021/11/15 02:43:50;;;;;;;19.95;11.52;;;;;;;;;;5075052;28;20072;-70
2021/11/15 02:46:17;;;;;;;22.40;12.27;;;;;;;;;;5075218;28;20056;-70
2021/11/15 02:48:44;;;;;;;19.63;11.35;;;;;;;;;;5087741;28;20457;-69
2021/11/15 02:51:10;;;;;;;21.20;11.57;;;;;;;;;;5095248;28;20452;-69
2021/11/15 02:53:37;;;;;;;20.38;10.38;;;;;;;;;;5094628;28;20456;-69
2021/11/15 02:56:05;;;;;;;23.20;11.80;;;;;;;;;;5095449;28;20105;-69
2021/11/15 02:58:31;;;;;;;23.90;12.05;;;;;;;;;;5095071;28;20097;-69
2021/11/15 03:01:01;;;;;;;20.00;11.88;;;;;;;;;;5095450;28;20464;-69
2021/11/15 03:03:28;;;;;;;20.08;11.27;;;;;;;;;;5076976;28;20048;-70
2021/11/15 03:05:55;;;;;;;21.95;12.38;;;;;;;;;;5095184;28;20052;-69
2021/11/15 03:08:23;;;;;;;24.45;12.93;;;;;;;;;;5094775;28;20052;-69
2021/11/15 03:10:52;;;;;;;18.80;11.27;;;;;;;;;;5063793;28;20423;-69
2021/11/15 03:13:19;;;;;;;19.13;11.35;;;;;;;;;;5074356;28;20044;-69
2021/11/15 03:15:49;;;;;;;18.60;11.27;;;;;;;;;;5074555;28;20068;-69
2021/11/15 03:18:17;;;;;;;20.48;11.68;;;;;;;;;;5074493;28;20056;-69
2021/11/15 03:20:58;;;;;;;19.75;11.13;;;;;;;;;;5074551;28;20060;-69
2021/11/15 03:23:28;;;;;;;20.13;11.18;;;;;;;;;;5074248;28;20045;-69
2021/11/15 03:25:56;;;;;;;20.98;11.00;;;;;;;;;;5074642;28;20056;-70
2021/11/15 03:28:26;;;;;;;17.42;10.52;;;;;;;;;;5082313;28;20047;-69
2021/11/15 03:30:56;;;;;;;21.10;11.27;;;;;;;;;;5094563;28;20048;-69
2021/11/15 03:33:24;;;;;;;19.67;10.45;;;;;;;;;;5093690;28;20069;-69
2021/11/15 03:35:51;;;;;;;24.70;11.55;;;;;;;;;;5076591;28;20117;-69
2021/11/15 03:38:18;;;;;;;18.50;9.88;;;;;;;;;;5094352;28;20077;-69
2021/11/15 03:40:45;;;;;;;19.30;10.95;;;;;;;;;;5094349;28;20056;-69
2021/11/15 03:43:12;;;;;;;19.33;10.32;;;;;;;;;;5081411;28;20049;-69
2021/11/15 03:45:39;;;;;;;17.52;10.18;;;;;;;;;;5074008;28;20114;-70
2021/11/15 03:48:06;;;;;;;19.55;10.13;;;;;;;;;;5073951;28;20484;-69
2021/11/15 03:50:33;;;;;;;17.63;10.25;;;;;;;;;;5056612;28;20105;-69
2021/11/15 03:53:01;;;;;;;18.17;10.50;;;;;;;;;;5073762;28;20049;-69
2021/11/15 03:55:27;;;;;;;19.25;10.93;;;;;;;;;;5085205;28;20109;-69
2021/11/15 03:57:54;;;;;;;17.50;10.55;;;;;;;;;;5094041;28;20125;-69
2021/11/15 04:00:25;;;;;;;19.45;10.82;;;;;;;;;;5094078;28;20631;-69
2021/11/15 04:02:55;;;;;;;20.80;10.60;;;;;;;;;;5087971;28;20082;-70
2021/11/15 04:05:27;;;;;;;17.98;10.85;;;;;;;;;;5073944;28;20053;-69
2021/11/15 04:07:54;;;;;;;17.45;10.48;;;;;;;;;;5056763;28;20048;-70
2021/11/15 04:10:21;;;;;;;17.58;9.82;;;;;;;;;;5073597;28;20122;-69
2021/11/15 04:12:48;;;;;;;19.85;10.05;;;;;;;;;;5073204;28;20056;-69
2021/11/15 04:15:15;;;;;;;19.52;10.80;;;;;;;;;;5073417;28;20105;-69
2021/11/15 04:17:44;;;;;;;19.23;10.93;;;;;;;;;;5073302;28;20451;-69
2021/11/15 04:20:14;;;;;;;16.27;9.30;;;;;;;;;;5073287;28;20466;-69
2021/11/15 04:22:41;;;;;;;17.42;10.25;;;;;;;;;;5073196;28;20098;-69
2021/11/15 04:25:09;;;;;;;15.85;9.43;;;;;;;;;;5073488;28;20052;-69
2021/11/15 04:27:36;;;;;;;16.52;10.38;;;;;;;;;;5073025;28;20048;-69
2021/11/15 04:30:03;;;;;;;18.48;10.90;;;;;;;;;;5073207;28;20106;-69
2021/11/15 04:32:30;;;;;;;18.55;10.70;;;;;;;;;;5072824;28;20051;-69
2021/11/15 04:34:56;;;;;;;17.88;9.57;;;;;;;;;;5073282;28;20048;-69
2021/11/15 04:37:23;;;;;;;16.67;9.73;;;;;;;;;;5073131;28;20048;-69
2021/11/15 04:39:53;;;;;;;17.55;9.80;;;;;;;;;;5073022;28;20110;-69
2021/11/15 04:42:19;;;;;;;17.05;10.15;;;;;;;;;;5055709;28;20048;-69
2021/11/15 04:44:46;;;;;;;16.30;9.75;;;;;;;;;;5071893;28;20101;-70
2021/11/15 04:47:12;;;;;;;16.27;9.57;;;;;;;;;;5072765;28;20566;-69
2021/11/15 04:49:39;;;;;;;19.33;11.07;;;;;;;;;;5072854;28;20098;-69
2021/11/15 04:52:08;;;;;;;16.48;9.13;;;;;;;;;;5072469;28;20090;-69
2021/11/15 04:54:35;;;;;;;16.45;9.80;;;;;;;;;;5072580;28;20052;-69
2021/11/15 04:57:02;;;;;;;17.38;8.85;;;;;;;;;;5072311;28;20580;-69
2021/11/15 04:59:28;;;;;;;16.77;10.27;;;;;;;;;;5072845;28;20048;-69
2021/11/15 05:01:55;;;;;;;15.52;9.23;;;;;;;;;;5077927;28;20063;-69
2021/11/15 05:04:22;;;;;;;17.35;10.18;;;;;;;;;;5092761;28;20521;-69
2021/11/15 05:06:52;;;;;;;15.93;9.10;;;;;;;;;;5075214;28;20465;-69
2021/11/15 05:09:18;;;;;;;16.40;9.68;;;;;;;;;;5092745;28;20055;-69
2021/11/15 05:11:45;;;;;;;19.08;10.05;;;;;;;;;;5092197;28;20105;-69
2021/11/15 05:14:12;;;;;;;15.38;9.15;;;;;;;;;;5092636;28;20052;-69
2021/11/15 05:16:38;;;;;;;15.80;8.50;;;;;;;;;;5074601;28;20052;-69
2021/11/15 05:19:05;;;;;;;14.68;8.90;;;;;;;;;;5092497;28;20139;-69
2021/11/15 05:21:32;;;;;;;15.60;8.38;;;;;;;;;;5092166;28;20073;-69
2021/11/15 05:23:58;;;;;;;15.10;8.82;;;;;;;;;;5092580;28;20052;-69
2021/11/15 05:26:25;;;;;;;12.95;7.93;;;;;;;;;;5092521;28;20051;-69
2021/11/15 05:28:52;;;;;;;14.82;7.95;;;;;;;;;;5092325;28;20048;-69
2021/11/15 05:31:18;;;;;;;13.90;7.75;;;;;;;;;;5088324;28;20104;-68
2021/11/15 05:33:45;;;;;;;16.30;8.70;;;;;;;;;;5071786;28;20047;-69
2021/11/15 05:36:12;;;;;;;16.77;9.38;;;;;;;;;;5072383;28;20048;-69
2021/11/15 05:38:38;;;;;;;14.48;8.43;;;;;;;;;;5072091;28;20052;-69
2021/11/15 05:41:05;;;;;;;14.70;8.38;;;;;;;;;;5072231;28;20048;-69
2021/11/15 05:43:32;;;;;;;13.93;8.85;;;;;;;;;;5071707;28;20059;-69
2021/11/15 05:45:59;;;;;;;17.80;9.65;;;;;;;;;;5071990;28;20445;-69
2021/11/15 05:48:26;;;;;;;17.95;8.90;;;;;;;;;;5071816;28;20442;-69
2021/11/15 05:50:52;;;;;;;15.93;9.05;;;;;;;;;;5071859;28;20055;-69
2021/11/15 05:53:19;;;;;;;15.50;8.75;;;;;;;;;;5071783;28;20052;-69
2021/11/15 05:55:46;;;;;;;16.35;8.85;;;;;;;;;;5071343;28;20098;-69
2021/11/15 05:58:12;;;;;;;16.23;8.90;;;;;;;;;;5071752;28;20105;-69
2021/11/15 06:00:39;;;;;;;13.85;8.55;;;;;;;;;;5071533;28;20049;-69
2021/11/15 06:03:06;;;;;;;15.48;9.55;;;;;;;;;;5071594;28;20102;-69
2021/11/15 06:05:33;;;;;;;14.23;8.27;;;;;;;;;;5071647;28;20075;-69
2021/11/15 06:07:59;;;;;;;14.73;7.90;;;;;;;;;;5072199;28;20052;-69
2021/11/15 06:10:28;;;;;;;18.55;9.75;;;;;;;;;;5071534;28;20044;-69
2021/11/15 06:12:54;;;;;;;16.55;9.27;;;;;;;;;;5071259;28;20564;-69
2021/11/15 06:15:21;;;;;;;13.20;7.78;;;;;;;;;;5071687;28;20097;-69
2021/11/15 06:17:49;;;;;;;14.75;8.98;;;;;;;;;;5071382;28;20071;-69
2021/11/15 06:20:16;;;;;;;13.93;8.55;;;;;;;;;;5071463;28;20105;-70
2021/11/15 06:22:43;;;;;;;15.55;7.80;;;;;;;;;;5071215;28;20548;-69
2021/11/15 06:25:11;;;;;;;14.65;8.52;;;;;;;;;;5071500;28;20102;-69
2021/11/15 06:27:43;;;;;;;14.23;8.18;;;;;;;;;;5073727;28;20048;-69
2021/11/15 06:30:13;;;;;;;13.90;8.48;;;;;;;;;;5091611;28;20052;-69
2021/11/15 06:32:40;;;;;;;15.77;8.38;;;;;;;;;;5091296;28;20040;-69
2021/11/15 06:35:07;;;;;;;12.63;7.95;;;;;;;;;;5076485;28;20510;-69
2021/11/15 06:37:34;;;;;;;17.10;8.55;;;;;;;;;;5071212;28;20048;-69
2021/11/15 06:40:01;;;;;;;16.67;9.50;;;;;;;;;;5071139;28;20044;-69
2021/11/15 06:42:28;;;;;;;14.48;8.05;;;;;;;;;;5071096;28;20049;-69
2021/11/15 06:44:54;;;;;;;16.23;8.80;;;;;;;;;;5071220;28;20125;-69
2021/11/15 06:47:25;;;;;;;15.13;8.45;;;;;;;;;;5086860;28;20457;-69
2021/11/15 06:49:55;;;;;;;14.10;8.65;;;;;;;;;;5090898;28;20056;-69
2021/11/15 06:52:23;;;;;;;16.85;9.27;;;;;;;;;;5091078;28;20048;-69
2021/11/15 06:54:50;;;;;;;15.10;8.25;;;;;;;;;;5091540;28;20128;-69
2021/11/15 06:57:16;;;;;;;15.95;9.13;;;;;;;;;;5091201;28;20093;-70
2021/11/15 06:59:43;;;;;;;19.30;10.38;;;;;;;;;;5091328;28;20078;-69
2021/11/15 07:02:10;;;;;;;13.38;7.95;;;;;;;;;;5091235;28;20052;-69
2021/11/15 07:04:43;;;;;;;15.00;9.00;;;;;;;;;;5091288;28;20445;-69
2021/11/15 07:07:09;;;;;;;16.85;9.98;;;;;;;;;;5092427;28;20117;-69
2021/11/15 07:09:36;;;;;;;16.67;9.75;;;;;;;;;;5094967;28;20055;-69
2021/11/15 07:12:03;;;;;;;15.25;7.60;;;;;;;;;;5094804;28;20055;-70
2021/11/15 07:14:30;;;;;;;17.73;9.18;;;;;;;;;;5094699;28;20048;-69
2021/11/15 07:16:56;;;;;;;16.83;8.57;;;;;;;;;;5094867;28;20052;-69
2021/11/15 07:19:23;;;;;;;18.23;9.48;;;;;;;;;;5094826;28;20044;-69
2021/11/15 07:21:50;;;;;;;17.95;9.80;;;;;;;;;;5094531;28;20503;-69
2021/11/15 07:24:16;;;;;;;15.02;9.57;;;;;;;;;;5094730;28;20040;-69
2021/11/15 07:26:43;;;;;;;16.52;8.95;;;;;;;;;;5094497;28;20055;-69
2021/11/15 07:29:10;;;;;;;17.02;9.85;;;;;;;;;;5094601;28;20044;-69
2021/11/15 07:31:39;;;;;;;16.08;8.98;;;;;;;;;;5094371;28;20349;-69
2021/11/15 07:34:06;;;;;;;15.32;8.15;;;;;;;;;;5094493;28;20536;-69
2021/11/15 07:36:32;;;;;;;14.93;8.75;;;;;;;;;;5094442;28;20085;-68
2021/11/15 07:38:59;;;;;;;15.55;8.95;;;;;;;;;;5079728;28;20114;-68
2021/11/15 07:41:26;;;;;;;15.02;8.55;;;;;;;;;;5074019;28;20056;-68
2021/11/15 07:43:52;;;;;;;14.70;8.65;;;;;;;;;;5073816;28;20194;-68
2021/11/15 07:46:19;;;;;;;16.98;8.65;;;;;;;;;;5073840;28;20097;-68
2021/11/15 07:48:46;;;;;;;13.45;7.85;;;;;;;;;;5074223;28;20053;-68
2021/11/15 07:51:13;;;;;;;15.88;8.75;;;;;;;;;;5073762;28;20052;-67
2021/11/15 07:53:39;;;;;;;14.93;8.60;;;;;;;;;;5071561;28;20036;-67
2021/11/15 07:56:08;;;;;;;15.52;7.80;;;;;;;;;;5072108;28;20461;-68
2021/11/15 07:58:36;;;;;;;14.65;7.82;;;;;;;;;;5071450;28;20527;-68
2021/11/15 08:01:03;;;;;;;15.40;8.07;;;;;;;;;;5071873;28;20473;-68
2021/11/15 08:03:30;;;;;;;18.35;9.10;;;;;;;;;;5070980;28;20066;-67
2021/11/15 08:05:58;;;;;;;15.70;7.80;;;;;;;;;;5071580;28;20117;-67
2021/11/15 08:08:24;;;;;;;14.23;7.93;;;;;;;;;;5071509;28;20065;-67
2021/11/15 08:10:51;;;;;;;13.70;8.40;;;;;;;;;;5071629;28;20045;-67
2021/11/15 08:13:18;;;;;;;15.38;7.80;;;;;;;;;;5071631;28;20048;-67
2021/11/15 08:15:46;;;;;;;16.13;8.70;;;;;;;;;;5071225;28;20444;-67
2021/11/15 08:18:12;;;;;;;13.50;7.97;;;;;;;;;;5070690;28;20137;-67
2021/11/15 08:20:39;;;;;;;16.55;8.65;;;;;;;;;;5075451;28;20445;-67
2021/11/15 08:23:12;;;;;;;15.23;9.10;;;;;;;;;;5091310;28;20048;-68
2021/11/15 08:26:01;;;;;;;17.42;9.43;;;;;;;;;;5073734;28;20040;-68
2021/11/15 08:28:28;;;;;;;13.18;8.07;;;;;;;;;;5091744;28;20113;-68
2021/11/15 08:30:56;;;;;;;16.77;8.48;;;;;;;;;;5084323;28;20105;-68
2021/11/15 08:33:23;;;;;;;15.32;8.88;;;;;;;;;;5036840;28;20075;-68
2021/11/15 08:35:49;;;;;;;18.60;8.80;;;;;;;;;;5053466;28;20048;-68
2021/11/15 08:38:16;;;;;;;17.42;8.90;;;;;;;;;;5037228;28;20056;-68
2021/11/15 08:40:52;;;;;;;16.58;9.68;;;;;;;;;;5070389;28;20098;-67
2021/11/15 08:43:20;;;;;;;13.75;8.52;;;;;;;;;;5079318;28;20045;-72
2021/11/15 08:45:48;;;;;;;14.20;8.32;;;;;;;;;;5052314;28;20044;-69
2021/11/15 08:48:20;;;;;;;14.52;8.27;;;;;;;;;;5061293;28;20131;-75
2021/11/15 08:50:48;;;;;;;15.07;8.85;;;;;;;;;;5052213;28;20056;-74
2021/11/15 08:53:16;;;;;;;14.63;8.93;;;;;;;;;;5079912;28;20113;-76
2021/11/15 08:55:43;;;;;;;17.33;9.50;;;;;;;;;;5063815;28;20048;-69
2021/11/15 08:58:10;;;;;;;19.27;9.05;;;;;;;;;;5078550;28;20051;-69
2021/11/15 09:00:40;;;;;;;14.00;8.98;;;;;;;;;;5086725;28;20048;-69
2021/11/15 09:03:07;;;;;;;15.90;9.35;;;;;;;;;;5079414;28;20036;-67
2021/11/15 09:05:34;;;;;;;15.90;8.55;;;;;;;;;;5077586;28;20074;-68
2021/11/15 09:08:00;;;;;;;15.18;9.18;;;;;;;;;;5080648;28;20051;-67
2021/11/15 09:10:28;;;;;;;15.07;8.52;;;;;;;;;;5077682;28;20053;-70
2021/11/15 09:12:55;;;;;;;14.80;8.38;;;;;;;;;;5082751;28;20101;-72
2021/11/15 09:15:22;;;;;;;13.30;8.23;;;;;;;;;;5077672;28;20111;-73
2021/11/15 09:17:48;;;;;;;14.20;8.45;;;;;;;;;;5075274;28;20044;-67
2021/11/15 09:20:15;;;;;;;15.68;8.75;;;;;;;;;;5080172;28;20564;-68
2021/11/15 09:22:42;;;;;;;16.30;9.18;;;;;;;;;;5078181;28;20044;-68
2021/11/15 09:25:10;;;;;;;14.77;8.60;;;;;;;;;;5078055;28;20052;-68
2021/11/15 09:27:38;;;;;;;15.48;9.23;;;;;;;;;;5077948;28;20102;-68
2021/11/15 09:30:06;;;;;;;16.15;9.15;;;;;;;;;;5078630;28;20044;-68
2021/11/15 09:32:33;;;;;;;14.80;7.82;;;;;;;;;;5080012;28;20097;-68
2021/11/15 09:34:59;;;;;;;17.88;8.65;;;;;;;;;;5080002;28;20040;-68
2021/11/15 09:37:27;;;;;;;14.18;8.27;;;;;;;;;;5080166;28;20445;-68
2021/11/15 09:39:57;;;;;;;15.45;8.40;;;;;;;;;;5078939;28;20101;-67
2021/11/15 09:42:24;;;;;;;17.48;9.82;;;;;;;;;;5078924;28;20087;-68
2021/11/15 09:44:51;;;;;;;15.65;9.32;;;;;;;;;;5083959;28;20070;-68
2021/11/15 09:47:19;;;;;;;17.88;9.40;;;;;;;;;;5079011;28;20052;-67
2021/11/15 09:49:46;;;;;;;18.80;9.13;;;;;;;;;;5078291;28;20044;-68
2021/11/15 09:52:13;;;;;;;16.27;9.43;;;;;;;;;;5079478;28;20052;-68
2021/11/15 09:54:40;;;;;;;18.15;9.63;;;;;;;;;;5079828;28;20040;-68
2021/11/15 09:57:27;;;;;;;17.38;9.45;;;;;;;;;;5080055;28;20524;-67
2021/11/15 09:59:53;;;;;;;18.20;9.23;;;;;;;;;;5079064;28;20621;-68
2021/11/15 10:02:20;;;;;;;17.10;9.52;;;;;;;;;;5080111;28;20510;-68
2021/11/15 10:04:47;;;;;;;17.23;10.27;;;;;;;;;;5080158;28;20080;-68
2021/11/15 10:07:14;;;;;;;15.10;9.40;;;;;;;;;;5060321;28;20048;-68
2021/11/15 10:09:42;;;;;;;20.55;9.85;;;;;;;;;;5081706;28;20052;-67
2021/11/15 10:12:14;;;;;;;17.17;9.23;;;;;;;;;;5078116;28;20052;-68
2021/11/15 10:15:00;;;;;;;16.05;8.70;;;;;;;;;;5080921;28;20043;-68
2021/11/15 10:17:44;;;;;;;14.38;8.70;;;;;;;;;;5078266;28;20051;-67
2021/11/15 10:20:11;;;;;;;18.27;9.00;;;;;;;;;;5077022;28;20052;-68
2021/11/15 10:22:40;;;;;;;18.92;9.48;;;;;;;;;;5079883;28;20051;-68
2021/11/15 10:25:09;;;;;;;16.90;9.43;;;;;;;;;;5077569;28;20470;-68
2021/11/15 10:27:37;;;;;;;18.50;9.20;;;;;;;;;;5076929;28;20097;-68
2021/11/15 10:30:11;;;;;;;17.35;9.77;;;;;;;;;;5061011;28;20495;-66
2021/11/15 10:32:43;;;;;;;16.77;8.95;;;;;;;;;;5076530;28;20045;-67
2021/11/15 10:35:09;;;;;;;18.20;9.90;;;;;;;;;;5076054;28;20048;-66
2021/11/15 10:37:39;;;;;;;17.33;9.95;;;;;;;;;;5079326;28;20231;-66
2021/11/15 10:40:14;;;;;;;16.50;9.40;;;;;;;;;;5077359;28;20465;-66
2021/11/15 10:42:44;;;;;;;18.48;9.68;;;;;;;;;;5081006;28;20090;-66
2021/11/15 10:45:18;;;;;;;18.05;10.23;;;;;;;;;;5082950;28;20048;-67
2021/11/15 10:47:48;;;;;;;19.63;9.85;;;;;;;;;;5083287;28;20493;-67
2021/11/15 10:50:25;;;;;;;18.00;9.77;;;;;;;;;;5065769;28;20110;-67
2021/11/15 10:53:08;;;;;;;16.63;9.85;;;;;;;;;;5079659;28;20056;-67
2021/11/15 10:55:38;;;;;;;;;;;;;;;;;;5087465;28;20487;-67
2021/11/15 10:58:14;;;;;;;17.58;9.38;;;;;;;;;;5081605;28;20424;-67
2021/11/15 11:00:45;;;;;;;16.17;9.55;;;;;;;;;;5080280;28;20075;-67
2021/11/15 11:03:18;;;;;;;16.85;9.45;;;;;;;;;;5081461;28;20059;-67
2021/11/15 11:05:46;;;;;;;16.83;9.70;;;;;;;;;;5080769;28;20048;-66
2021/11/15 11:08:24;;;;;;;16.58;10.98;;;;;;;;;;5082966;28;20465;-67
2021/11/15 11:11:03;;;;;;;16.85;9.45;;;;;;;;;;5081590;28;20114;-67
2021/11/15 11:14:18;;;;;;;16.52;8.88;;;;;;;;;;5078844;28;20048;-67
2021/11/15 11:16:48;;;;;;;19.90;10.05;;;;;;;;;;5075562;28;20480;-67
2021/11/15 11:19:27;;;;;;;16.15;9.75;;;;;;;;;;5076922;28;20048;-68
2021/11/15 11:27:13;;;;;;;18.63;9.98;;;;;;;;;;5078205;28;20101;-68
2021/11/15 11:29:42;;;;;;;19.83;10.70;;;;;;;;;;5076459;28;20051;-68
2021/11/15 11:32:14;;;;;;;15.35;9.32;;;;;;;;;;5080932;28;20056;-67
2021/11/15 11:34:41;;;;;;;16.75;9.57;;;;;;;;;;5077944;28;20122;-68
2021/11/15 11:37:13;;;;;;;17.60;10.48;;;;;;;;;;5078459;28;20058;-68
2021/11/15 11:39:40;;;;;;;16.83;9.82;;;;;;;;;;5078281;28;20602;-68
2021/11/15 11:42:08;;;;;;;15.90;9.57;;;;;;;;;;5059452;28;20052;-68
2021/11/15 11:44:36;;;;;;;13.93;9.18;;;;;;;;;;5082776;28;20048;-68
2021/11/15 11:47:05;;;;;;;16.27;9.80;;;;;;;;;;5077013;28;20106;-68
2021/11/15 11:49:32;;;;;;;16.15;9.48;;;;;;;;;;5077589;28;20044;-68
2021/11/15 11:52:01;;;;;;;15.25;9.48;;;;;;;;;;5060328;28;20133;-69
2021/11/15 11:54:32;;;;;;;15.82;9.43;;;;;;;;;;5079322;28;20052;-70
2021/11/15 11:57:08;;;;;;;17.80;11.25;;;;;;;;;;5082733;28;20052;-70
2021/11/15 11:59:38;;;;;;;15.10;8.98;;;;;;;;;;5085232;28;20086;-69
2021/11/15 12:02:11;;;;;;;17.38;10.27;;;;;;;;;;5082848;28;20419;-73
2021/11/15 12:04:52;;;;;;;16.80;10.50;;;;;;;;;;5084271;28;20044;-74
2021/11/15 12:07:23;;;;;;;15.57;9.85;;;;;;;;;;5081322;28;20054;-68
2021/11/15 12:09:50;;;;;;;18.85;10.38;;;;;;;;;;5083614;28;20060;-67
2021/11/15 12:12:17;;;;;;;17.67;10.35;;;;;;;;;;5060763;28;20060;-67
2021/11/15 12:14:43;;;;;;;14.65;9.63;;;;;;;;;;5081632;28;20040;-70
2021/11/15 12:17:12;;;;;;;14.25;9.57;;;;;;;;;;5083640;28;20052;-68
2021/11/15 12:19:57;;;;;;;15.75;9.75;;;;;;;;;;5081625;28;20495;-73
2021/11/15 12:22:28;;;;;;;17.65;9.68;;;;;;;;;;5082903;28;20048;-68
2021/11/15 12:25:07;;;;;;;14.93;10.30;;;;;;;;;;5078451;28;20470;-69
2021/11/15 12:27:55;;;;;;;15.50;9.00;;;;;;;;;;5082065;28;20051;-70
2021/11/15 12:30:34;;;;;;;16.52;10.18;;;;;;;;;;5082857;28;20052;-68
2021/11/15 12:33:16;;;;;;;15.45;9.60;;;;;;;;;;5080134;28;20048;-71
2021/11/15 12:36:02;;;;;;;18.27;10.15;;;;;;;;;;5083748;28;20036;-68
2021/11/15 12:38:31;;;;;;;14.60;9.48;;;;;;;;;;5080396;28;20043;-67
2021/11/15 12:40:58;;;;;;;19.08;10.43;;;;;;;;;;5081778;28;20457;-67
2021/11/15 12:43:25;;;;;;;20.10;11.85;;;;;;;;;;5078955;28;20044;-67
2021/11/15 12:46:12;;;;;;;15.50;9.95;;;;;;;;;;5078306;28;20423;-67
2021/11/15 12:48:43;;;;;;;17.65;10.85;;;;;;;;;;5083497;28;20460;-71
2021/11/15 12:51:18;;;;;;;18.52;10.52;;;;;;;;;;5061462;28;20048;-69
2021/11/15 12:53:48;;;;;;;19.23;11.20;;;;;;;;;;5077047;28;20090;-67
2021/11/15 12:56:18;;;;;;;18.40;10.05;;;;;;;;;;5079342;28;20052;-68
2021/11/15 12:58:55;;;;;;;16.23;9.75;;;;;;;;;;5079212;28;20584;-69
2021/11/15 13:01:25;;;;;;;20.80;10.45;;;;;;;;;;5082997;28;20484;-69
2021/11/15 13:03:53;;;;;;;18.55;11.02;;;;;;;;;;5076909;28;20052;-69
2021/11/15 13:12:29;;;;;;;22.35;13.57;;;;;;;;;;5047887;28;20095;-68
2021/11/15 13:14:58;;;;;;;17.73;12.15;;;;;;;;;;5070695;28;20049;-69
2021/11/15 13:17:26;;;;;;;20.08;12.80;;;;;;;;;;5070820;28;20044;-70
2021/11/15 13:19:53;;;;;;;19.27;12.20;;;;;;;;;;5067928;28;20059;-69
2021/11/15 13:22:23;;;;;;;19.52;12.68;;;;;;;;;;5069309;28;20407;-68
2021/11/15 13:24:53;;;;;;;20.73;11.75;;;;;;;;;;5070064;28;20898;-70
2021/11/15 13:27:22;;;;;;;18.90;12.60;;;;;;;;;;5068956;28;20319;-70
2021/11/15 13:29:49;;;;;;;21.25;12.32;;;;;;;;;;5070183;28;20052;-68
2021/11/15 13:32:17;;;;;;;20.42;13.30;;;;;;;;;;5053009;28;20052;-68
2021/11/15 13:34:49;;;;;;;19.73;12.48;;;;;;;;;;5070199;28;20040;-68
2021/11/15 13:37:16;;;;;;;;;;;;;;;;;;5067353;28;20052;-68
2021/11/15 13:39:44;;;;;;;21.85;12.68;;;;;;;;;;5070376;28;20302;-72
2021/11/15 13:42:12;;;;;;;19.65;12.43;;;;;;;;;;5053225;28;20053;-73
2021/11/15 13:44:39;;;;;;;19.17;12.10;;;;;;;;;;5052777;28;20041;-73
2021/11/15 13:47:06;;;;;;;21.05;12.85;;;;;;;;;;5052541;28;20052;-72
2021/11/15 13:49:34;;;;;;;21.67;12.65;;;;;;;;;;5068489;28;20083;-71
2021/11/15 13:52:03;;;;;;;21.80;13.15;;;;;;;;;;5070396;28;20053;-74
2021/11/15 13:54:42;;;;;;;21.88;12.90;;;;;;;;;;5053313;28;20045;-71
2021/11/15 13:57:10;;;;;;;19.17;11.57;;;;;;;;;;5069401;28;20048;-72
2021/11/15 13:59:37;;;;;;;19.98;12.38;;;;;;;;;;5069895;28;20573;-72
2021/11/15 14:02:04;;;;;;;19.35;12.23;;;;;;;;;;5070152;28;20573;-71
2021/11/15 14:04:35;;;;;;;23.10;13.43;;;;;;;;;;5069775;28;20044;-70
2021/11/15 14:07:05;;;;;;;24.88;14.23;;;;;;;;;;5069098;28;20059;-70
2021/11/15 14:09:32;;;;;;;22.25;12.48;;;;;;;;;;5069997;28;20052;-68
2021/11/15 14:11:58;;;;;;;22.20;13.63;;;;;;;;;;5070213;28;20056;-67
2021/11/15 14:14:25;;;;;;;20.20;12.57;;;;;;;;;;5051869;28;20454;-67
2021/11/15 14:16:54;;;;;;;21.15;12.93;;;;;;;;;;5072202;28;20071;-70
2021/11/15 14:19:22;;;;;;;19.52;11.45;;;;;;;;;;5074097;28;20055;-69
2021/11/15 14:21:54;;;;;;;21.20;12.20;;;;;;;;;;5073627;28;20128;-68
2021/11/15 14:24:21;;;;;;;22.00;12.38;;;;;;;;;;5074123;28;20045;-69
2021/11/15 14:26:49;;;;;;;19.08;11.57;;;;;;;;;;5074048;28;20048;-70
2021/11/15 14:29:15;;;;;;;16.10;11.07;;;;;;;;;;5074168;28;20202;-67
2021/11/15 14:31:42;;;;;;;21.13;12.75;;;;;;;;;;5073377;28;20507;-71
2021/11/15 14:34:09;;;;;;;16.25;10.93;;;;;;;;;;5073915;28;20052;-71
2021/11/15 14:36:39;;;;;;;16.95;11.25;;;;;;;;;;5072098;28;20101;-68
2021/11/15 14:39:06;;;;;;;18.35;11.35;;;;;;;;;;5074061;28;20511;-68
2021/11/15 14:41:32;;;;;;;17.63;10.82;;;;;;;;;;5073122;28;20423;-68
2021/11/15 14:44:04;;;;;;;18.63;11.02;;;;;;;;;;5072787;28;20106;-67